Airfield :
LOGIN :

Register | Disclaimer

   EN    FR    IT 

 










Legend :    VFR   Marginal VFR   IFR   Intensive IFR   Very Intensive IFR
Visi :
Ceiling :
>= 8 km
>= 3000ft
5 to 8 km
1000 to 3000 ft
1500m to 5 km
500 to 1000 ft
800 to 1500m
200 to 500 ft
< 800m
< 200 ft
Symbols :   Thunderstorms  Fog  Heavy snow  Heavy precipitations  Wind > 20 kt
SIGMETs :     Misc.  Thunderstorms  Icing  Turbulence  Mountain Waves  Volcanic Ashes







- Airport Elevation : 2001 ft
- IATA code : MAD


LEMD - Madrid

CURRENT METAR :
  • 241230Z 12006KT 060V210 CAVOK 20/M02 Q1023 NOSIG

EXPIRED METARs :
  • 241200Z 10005KT CAVOK 20/M00 Q1023 NOSIG
  • 241130Z 04005KT CAVOK 19/M01 Q1024 NOSIG
  • 241100Z 06004KT CAVOK 18/01 Q1024 NOSIG
  • 241030Z 08004KT CAVOK 17/01 Q1024 NOSIG
  • 241000Z 36003KT 290V100 CAVOK 16/03 Q1025 NOSIG

TAF TAF LEMD
Valid from the 24 at 12:00 until the 25 at 18:00 UTC


241100Z 2412/2518 VRB05KT CAVOK TX21/2415Z TN04/2506Z
PROB40
TEMPO 2412/2417 09010KT
No reported NOTAMs for that airfield.



MET'MAP, your aeronautical weather chart ! - Copyright ORBIFLY December 2007 - Disclaimer

ORBIFLY MET'MAP TEAM :

Programming & Development : Alexandra Zaïnal
Concept & Development : Baudouin d'Aumeries
Co-Development & Prog : Marc-Olivier Méhu
Technical & hardware support : Manuel Goepfert

Contact : metmap@orbifly.com




SOURCES & CREDITS :

   NOAA